sensor_id;sensor_type;location;lat;lon;timestamp;pressure;altitude;pressure_sealevel;temperature;humidity
19208;BME280;9737;59.466;18.036;2023-05-22T00:00:12;98086.44;;;7.36;nan
19208;BME280;9737;59.466;18.036;2023-05-22T00:02:41;98064.25;;;7.29;nan
19208;BME280;9737;59.466;18.036;2023-05-22T00:05:10;98037.53;;;7.22;nan
19208;BME280;9737;59.466;18.036;2023-05-22T00:07:39;98027.41;;;7.18;nan
19208;BME280;9737;59.466;18.036;2023-05-22T00:10:10;97999.94;;;7.10;nan
19208;BME280;9737;59.466;18.036;2023-05-22T00:12:38;97998.13;;;7.11;nan
19208;BME280;9737;59.466;18.036;2023-05-22T00:15:07;98001.75;;;7.10;nan
19208;BME280;9737;59.466;18.036;2023-05-22T00:17:36;98012.84;;;7.13;nan
19208;BME280;9737;59.466;18.036;2023-05-22T00:20:05;98029.09;;;7.19;nan
19208;BME280;9737;59.466;18.036;2023-05-22T00:22:36;98047.16;;;7.23;nan
19208;BME280;9737;59.466;18.036;2023-05-22T00:25:05;98054.22;;;7.23;nan
19208;BME280;9737;59.466;18.036;2023-05-22T00:27:35;98046.47;;;7.21;nan
19208;BME280;9737;59.466;18.036;2023-05-22T00:30:05;98047.28;;;7.22;nan
19208;BME280;9737;59.466;18.036;2023-05-22T00:32:33;98023.13;;;7.17;nan
19208;BME280;9737;59.466;18.036;2023-05-22T00:35:01;98002.03;;;7.07;nan
19208;BME280;9737;59.466;18.036;2023-05-22T00:37:29;97982.03;;;7.04;nan
19208;BME280;9737;59.466;18.036;2023-05-22T00:39:57;97978.03;;;7.00;nan
19208;BME280;9737;59.466;18.036;2023-05-22T00:42:25;97977.88;;;7.02;nan
19208;BME280;9737;59.466;18.036;2023-05-22T00:44:55;97987.31;;;7.04;nan
19208;BME280;9737;59.466;18.036;2023-05-22T00:47:23;97990.66;;;7.06;nan
19208;BME280;9737;59.466;18.036;2023-05-22T00:49:52;98004.69;;;7.07;nan
19208;BME280;9737;59.466;18.036;2023-05-22T00:52:20;98001.75;;;7.10;nan
19208;BME280;9737;59.466;18.036;2023-05-22T00:54:49;97995.09;;;7.06;nan
19208;BME280;9737;59.466;18.036;2023-05-22T00:57:17;97968.44;;;6.99;nan
19208;BME280;9737;59.466;18.036;2023-05-22T00:59:46;97944.56;;;6.91;nan
19208;BME280;9737;59.466;18.036;2023-05-22T01:02:16;97912.78;;;6.83;nan
19208;BME280;9737;59.466;18.036;2023-05-22T01:04:45;97877.53;;;6.74;nan
19208;BME280;9737;59.466;18.036;2023-05-22T01:07:14;97873.25;;;6.73;nan
19208;BME280;9737;59.466;18.036;2023-05-22T01:09:43;97889.63;;;6.77;nan
19208;BME280;9737;59.466;18.036;2023-05-22T01:12:17;97907.81;;;6.80;nan
19208;BME280;9737;59.466;18.036;2023-05-22T01:14:52;97896.56;;;6.78;nan
19208;BME280;9737;59.466;18.036;2023-05-22T01:17:28;97871.75;;;6.71;nan
19208;BME280;9737;59.466;18.036;2023-05-22T01:20:07;97846.88;;;6.64;nan
19208;BME280;9737;59.466;18.036;2023-05-22T01:26:00;97846.06;;;6.63;nan
19208;BME280;9737;59.466;18.036;2023-05-22T01:28:40;97846.88;;;6.64;nan
19208;BME280;9737;59.466;18.036;2023-05-22T01:31:16;97825.53;;;6.57;nan
19208;BME280;9737;59.466;18.036;2023-05-22T01:33:48;97807.81;;;6.49;nan
19208;BME280;9737;59.466;18.036;2023-05-22T01:36:20;97782.03;;;6.43;nan
19208;BME280;9737;59.466;18.036;2023-05-22T01:38:49;97778.72;;;6.41;nan
19208;BME280;9737;59.466;18.036;2023-05-22T01:41:19;97777.03;;;6.40;nan
19208;BME280;9737;59.466;18.036;2023-05-22T01:43:47;97759.97;;;6.35;nan
19208;BME280;9737;59.466;18.036;2023-05-22T01:46:16;97731.41;;;6.30;nan
19208;BME280;9737;59.466;18.036;2023-05-22T01:48:44;97708.25;;;6.24;nan
19208;BME280;9737;59.466;18.036;2023-05-22T01:51:17;97690.41;;;6.18;nan
19208;BME280;9737;59.466;18.036;2023-05-22T01:53:50;97672.53;;;6.12;nan
19208;BME280;9737;59.466;18.036;2023-05-22T01:56:22;97658.66;;;6.10;nan
19208;BME280;9737;59.466;18.036;2023-05-22T01:59:00;97661.47;;;6.08;nan
19208;BME280;9737;59.466;18.036;2023-05-22T02:01:34;97663.94;;;6.10;nan
19208;BME280;9737;59.466;18.036;2023-05-22T02:04:04;97666.72;;;6.08;nan
19208;BME280;9737;59.466;18.036;2023-05-22T02:06:32;97670.88;;;6.11;nan
19208;BME280;9737;59.466;18.036;2023-05-22T02:09:01;97689.72;;;6.16;nan
19208;BME280;9737;59.466;18.036;2023-05-22T02:11:31;97701.94;;;6.17;nan
19208;BME280;9737;59.466;18.036;2023-05-22T02:14:01;97688.06;;;6.15;nan
19208;BME280;9737;59.466;18.036;2023-05-22T02:16:29;97695.00;;;6.16;nan
19208;BME280;9737;59.466;18.036;2023-05-22T02:18:59;97679.47;;;6.13;nan
19208;BME280;9737;59.466;18.036;2023-05-22T02:21:32;97682.09;;;6.13;nan
19208;BME280;9737;59.466;18.036;2023-05-22T02:24:01;97712.34;;;6.18;nan
19208;BME280;9737;59.466;18.036;2023-05-22T02:26:29;97706.06;;;6.19;nan
19208;BME280;9737;59.466;18.036;2023-05-22T02:28:57;97700.28;;;6.16;nan
19208;BME280;9737;59.466;18.036;2023-05-22T02:31:25;97700.28;;;6.16;nan
19208;BME280;9737;59.466;18.036;2023-05-22T02:33:53;97692.50;;;6.14;nan
19208;BME280;9737;59.466;18.036;2023-05-22T02:36:23;97708.88;;;6.18;nan
19208;BME280;9737;59.466;18.036;2023-05-22T02:38:51;97715.81;;;6.19;nan
19208;BME280;9737;59.466;18.036;2023-05-22T02:41:21;97716.09;;;6.16;nan
19208;BME280;9737;59.466;18.036;2023-05-22T02:43:49;97736.44;;;6.24;nan
19208;BME280;9737;59.466;18.036;2023-05-22T02:46:17;97742.41;;;6.26;nan
19208;BME280;9737;59.466;18.036;2023-05-22T02:48:45;97751.00;;;6.28;nan
19208;BME280;9737;59.466;18.036;2023-05-22T02:51:13;97755.16;;;6.30;nan
19208;BME280;9737;59.466;18.036;2023-05-22T02:53:43;97769.19;;;6.31;nan
19208;BME280;9737;59.466;18.036;2023-05-22T02:56:11;97780.09;;;6.36;nan
19208;BME280;9737;59.466;18.036;2023-05-22T02:58:38;97798.16;;;6.40;nan
19208;BME280;9737;59.466;18.036;2023-05-22T03:01:07;97818.69;;;6.46;nan
19208;BME280;9737;59.466;18.036;2023-05-22T03:03:36;97847.94;;;6.53;nan
19208;BME280;9737;59.466;18.036;2023-05-22T03:06:04;97862.34;;;6.59;nan
19208;BME280;9737;59.466;18.036;2023-05-22T03:08:34;97878.88;;;6.61;nan
19208;BME280;9737;59.466;18.036;2023-05-22T03:11:05;97896.06;;;6.65;nan
19208;BME280;9737;59.466;18.036;2023-05-22T03:13:33;97908.03;;;6.69;nan
19208;BME280;9737;59.466;18.036;2023-05-22T03:16:01;97916.34;;;6.74;nan
19208;BME280;9737;59.466;18.036;2023-05-22T03:18:29;97949.38;;;6.78;nan
19208;BME280;9737;59.466;18.036;2023-05-22T03:20:57;97986.47;;;6.86;nan
19208;BME280;9737;59.466;18.036;2023-05-22T03:23:25;97990.59;;;6.89;nan
19208;BME280;9737;59.466;18.036;2023-05-22T03:25:53;97995.75;;;6.90;nan
19208;BME280;9737;59.466;18.036;2023-05-22T03:28:22;98006.00;;;6.93;nan
19208;BME280;9737;59.466;18.036;2023-05-22T03:30:50;98005.34;;;6.91;nan
19208;BME280;9737;59.466;18.036;2023-05-22T03:33:18;98022.44;;;6.97;nan
19208;BME280;9737;59.466;18.036;2023-05-22T03:35:46;98039.81;;;6.99;nan
19208;BME280;9737;59.466;18.036;2023-05-22T03:38:14;98054.22;;;7.05;nan
19208;BME280;9737;59.466;18.036;2023-05-22T03:40:42;98071.91;;;7.04;nan
19208;BME280;9737;59.466;18.036;2023-05-22T03:43:09;98097.44;;;7.13;nan
19208;BME280;9737;59.466;18.036;2023-05-22T03:45:39;98109.66;;;7.14;nan
19208;BME280;9737;59.466;18.036;2023-05-22T03:48:07;98129.13;;;7.23;nan
19208;BME280;9737;59.466;18.036;2023-05-22T03:50:36;98159.94;;;7.32;nan
19208;BME280;9737;59.466;18.036;2023-05-22T03:53:04;98203.31;;;7.39;nan
19208;BME280;9737;59.466;18.036;2023-05-22T03:55:32;98212.47;;;7.45;nan
19208;BME280;9737;59.466;18.036;2023-05-22T03:58:00;98236.53;;;7.52;nan
19208;BME280;9737;59.466;18.036;2023-05-22T04:00:28;98257.28;;;7.56;nan
19208;BME280;9737;59.466;18.036;2023-05-22T04:02:58;98287.59;;;7.62;nan
19208;BME280;9737;59.466;18.036;2023-05-22T04:05:26;98306.50;;;7.67;nan
19208;BME280;9737;59.466;18.036;2023-05-22T04:07:56;98324.59;;;7.71;nan
19208;BME280;9737;59.466;18.036;2023-05-22T04:10:24;98350.44;;;7.77;nan
19208;BME280;9737;59.466;18.036;2023-05-22T04:12:51;98381.34;;;7.87;nan
19208;BME280;9737;59.466;18.036;2023-05-22T04:15:19;98421.00;;;7.96;nan
19208;BME280;9737;59.466;18.036;2023-05-22T04:17:49;98451.06;;;8.05;nan
19208;BME280;9737;59.466;18.036;2023-05-22T04:20:19;98479.63;;;8.11;nan
19208;BME280;9737;59.466;18.036;2023-05-22T04:22:47;98504.69;;;8.17;nan
19208;BME280;9737;59.466;18.036;2023-05-22T04:25:16;98528.78;;;8.23;nan
19208;BME280;9737;59.466;18.036;2023-05-22T04:28:01;98545.34;;;8.25;nan
19208;BME280;9737;59.466;18.036;2023-05-22T04:30:30;98581.31;;;8.37;nan
19208;BME280;9737;59.466;18.036;2023-05-22T04:32:59;98639.28;;;8.50;nan
19208;BME280;9737;59.466;18.036;2023-05-22T04:35:28;98734.94;;;8.76;nan
19208;BME280;9737;59.466;18.036;2023-05-22T04:37:58;98834.38;;;8.99;nan
19208;BME280;9737;59.466;18.036;2023-05-22T04:40:27;98948.25;;;9.30;nan
19208;BME280;9737;59.466;18.036;2023-05-22T04:42:59;99057.91;;;9.59;nan
19208;BME280;9737;59.466;18.036;2023-05-22T04:45:27;99179.06;;;9.89;nan
19208;BME280;9737;59.466;18.036;2023-05-22T04:47:56;99296.69;;;10.20;nan
19208;BME280;9737;59.466;18.036;2023-05-22T04:50:25;99425.72;;;10.53;nan
19208;BME280;9737;59.466;18.036;2023-05-22T04:52:57;99558.22;;;10.89;nan
19208;BME280;9737;59.466;18.036;2023-05-22T04:55:26;99691.91;;;11.21;nan
19208;BME280;9737;59.466;18.036;2023-05-22T04:57:54;99838.06;;;11.55;nan
19208;BME280;9737;59.466;18.036;2023-05-22T05:00:23;99932.56;;;11.81;nan
19208;BME280;9737;59.466;18.036;2023-05-22T05:02:52;100053.38;;;12.12;nan
19208;BME280;9737;59.466;18.036;2023-05-22T05:05:20;100185.66;;;12.45;nan
19208;BME280;9737;59.466;18.036;2023-05-22T05:07:48;100311.09;;;12.76;nan
19208;BME280;9737;59.466;18.036;2023-05-22T05:10:18;100452.41;;;13.09;nan
19208;BME280;9737;59.466;18.036;2023-05-22T05:12:46;100589.22;;;13.45;nan
19208;BME280;9737;59.466;18.036;2023-05-22T05:15:14;100729.66;;;13.81;nan
19208;BME280;9737;59.466;18.036;2023-05-22T05:17:42;100870.31;;;14.15;nan
19208;BME280;9737;59.466;18.036;2023-05-22T05:20:10;101031.31;;;14.54;nan
19208;BME280;9737;59.466;18.036;2023-05-22T05:22:40;101212.88;;;14.94;nan
19208;BME280;9737;59.466;18.036;2023-05-22T05:25:09;101386.81;;;15.41;nan
19208;BME280;9737;59.466;18.036;2023-05-22T05:27:39;101565.84;;;15.84;nan
19208;BME280;9737;59.466;18.036;2023-05-22T05:30:07;101716.69;;;16.23;nan
19208;BME280;9737;59.466;18.036;2023-05-22T05:32:37;101854.19;;;16.50;nan
19208;BME280;9737;59.466;18.036;2023-05-22T05:35:06;102005.31;;;16.89;nan
19208;BME280;9737;59.466;18.036;2023-05-22T05:37:34;102106.47;;;17.14;nan
19208;BME280;9737;59.466;18.036;2023-05-22T05:40:02;102242.06;;;17.46;nan
19208;BME280;9737;59.466;18.036;2023-05-22T05:42:32;102293.47;;;17.54;nan
19208;BME280;9737;59.466;18.036;2023-05-22T05:45:02;102369.22;;;17.74;nan
19208;BME280;9737;59.466;18.036;2023-05-22T05:47:30;102357.94;;;17.69;nan
19208;BME280;9737;59.466;18.036;2023-05-22T05:49:58;102366.00;;;17.69;nan
19208;BME280;9737;59.466;18.036;2023-05-22T05:52:26;102456.78;;;17.90;nan
19208;BME280;9737;59.466;18.036;2023-05-22T05:54:58;102606.69;;;18.28;nan
19208;BME280;9737;59.466;18.036;2023-05-22T05:57:28;102661.38;;;18.41;nan
19208;BME280;9737;59.466;18.036;2023-05-22T05:59:56;102660.97;;;18.35;nan
19208;BME280;9737;59.466;18.036;2023-05-22T06:02:25;102660.75;;;18.38;nan
19208;BME280;9737;59.466;18.036;2023-05-22T06:04:53;102750.84;;;18.59;nan
19208;BME280;9737;59.466;18.036;2023-05-22T06:07:21;102888.88;;;18.90;nan
19208;BME280;9737;59.466;18.036;2023-05-22T06:09:49;102910.25;;;18.93;nan
19208;BME280;9737;59.466;18.036;2023-05-22T06:12:18;102924.25;;;18.98;nan
19208;BME280;9737;59.466;18.036;2023-05-22T06:14:45;103099.34;;;19.40;nan
19208;BME280;9737;59.466;18.036;2023-05-22T06:17:14;103203.91;;;19.64;nan
19208;BME280;9737;59.466;18.036;2023-05-22T06:19:43;103255.59;;;19.72;nan
19208;BME280;9737;59.466;18.036;2023-05-22T06:22:11;103275.03;;;19.77;nan
19208;BME280;9737;59.466;18.036;2023-05-22T06:24:39;103369.75;;;20.01;nan
19208;BME280;9737;59.466;18.036;2023-05-22T06:27:07;103458.53;;;20.20;nan
19208;BME280;9737;59.466;18.036;2023-05-22T06:29:35;103502.16;;;20.28;nan
19208;BME280;9737;59.466;18.036;2023-05-22T06:32:03;103467.50;;;20.20;nan
19208;BME280;9737;59.466;18.036;2023-05-22T06:34:32;103512.75;;;20.31;nan
19208;BME280;9737;59.466;18.036;2023-05-22T06:37:01;103605.88;;;20.54;nan
19208;BME280;9737;59.466;18.036;2023-05-22T06:39:30;103542.06;;;20.37;nan
19208;BME280;9737;59.466;18.036;2023-05-22T06:41:57;103582.25;;;20.43;nan
19208;BME280;9737;59.466;18.036;2023-05-22T06:44:26;103601.50;;;20.51;nan
19208;BME280;9737;59.466;18.036;2023-05-22T06:46:53;103690.53;;;20.68;nan
19208;BME280;9737;59.466;18.036;2023-05-22T06:49:21;103685.13;;;20.68;nan
19208;BME280;9737;59.466;18.036;2023-05-22T06:51:49;103751.75;;;20.84;nan
19208;BME280;9737;59.466;18.036;2023-05-22T06:54:19;103814.91;;;20.97;nan
19208;BME280;9737;59.466;18.036;2023-05-22T06:56:47;104033.59;;;21.49;nan
19208;BME280;9737;59.466;18.036;2023-05-22T06:59:15;104196.44;;;21.87;nan
19208;BME280;9737;59.466;18.036;2023-05-22T07:01:43;104223.34;;;21.90;nan
19208;BME280;9737;59.466;18.036;2023-05-22T07:04:11;104114.63;;;21.66;nan
19208;BME280;9737;59.466;18.036;2023-05-22T07:06:40;104158.22;;;21.77;nan
19208;BME280;9737;59.466;18.036;2023-05-22T07:09:09;104198.28;;;21.86;nan
19208;BME280;9737;59.466;18.036;2023-05-22T07:11:39;104232.13;;;21.93;nan
19208;BME280;9737;59.466;18.036;2023-05-22T07:14:08;104305.41;;;22.08;nan
19208;BME280;9737;59.466;18.036;2023-05-22T07:16:38;104326.69;;;22.14;nan
19208;BME280;9737;59.466;18.036;2023-05-22T07:19:06;104453.16;;;22.45;nan
19208;BME280;9737;59.466;18.036;2023-05-22T07:21:36;104444.31;;;22.41;nan
19208;BME280;9737;59.466;18.036;2023-05-22T07:24:04;104500.53;;;22.53;nan
19208;BME280;9737;59.466;18.036;2023-05-22T07:26:34;104544.28;;;22.63;nan
19208;BME280;9737;59.466;18.036;2023-05-22T07:29:04;104613.81;;;22.80;nan
19208;BME280;9737;59.466;18.036;2023-05-22T07:31:32;104608.56;;;22.77;nan
19208;BME280;9737;59.466;18.036;2023-05-22T07:34:00;104717.47;;;23.02;nan
19208;BME280;9737;59.466;18.036;2023-05-22T07:36:28;104686.22;;;22.95;nan
19208;BME280;9737;59.466;18.036;2023-05-22T07:38:57;104695.16;;;22.97;nan
19208;BME280;9737;59.466;18.036;2023-05-22T07:41:25;104709.31;;;23.02;nan
19208;BME280;9737;59.466;18.036;2023-05-22T07:43:53;104816.50;;;23.27;nan
19208;BME280;9737;59.466;18.036;2023-05-22T07:46:24;104846.03;;;23.33;nan
19208;BME280;9737;59.466;18.036;2023-05-22T07:48:52;104891.69;;;23.42;nan
19208;BME280;9737;59.466;18.036;2023-05-22T07:51:20;104867.38;;;23.39;nan
19208;BME280;9737;59.466;18.036;2023-05-22T07:53:48;104992.56;;;23.67;nan
19208;BME280;9737;59.466;18.036;2023-05-22T07:56:16;105102.63;;;23.92;nan
19208;BME280;9737;59.466;18.036;2023-05-22T07:58:44;105252.94;;;24.27;nan
19208;BME280;9737;59.466;18.036;2023-05-22T08:01:13;105340.69;;;24.48;nan
19208;BME280;9737;59.466;18.036;2023-05-22T08:03:43;105332.72;;;24.45;nan
19208;BME280;9737;59.466;18.036;2023-05-22T08:06:11;105286.97;;;24.35;nan
19208;BME280;9737;59.466;18.036;2023-05-22T08:08:41;105310.31;;;24.39;nan
19208;BME280;9737;59.466;18.036;2023-05-22T08:11:10;105312.16;;;24.39;nan
19208;BME280;9737;59.466;18.036;2023-05-22T08:13:38;105394.47;;;24.60;nan
19208;BME280;9737;59.466;18.036;2023-05-22T08:16:06;105382.84;;;24.56;nan
19208;BME280;9737;59.466;18.036;2023-05-22T08:18:34;105461.59;;;24.77;nan
19208;BME280;9737;59.466;18.036;2023-05-22T08:21:03;105453.59;;;24.74;nan
19208;BME280;9737;59.466;18.036;2023-05-22T08:23:31;105439.28;;;24.70;nan
19208;BME280;9737;59.466;18.036;2023-05-22T08:26:02;105678.72;;;25.25;nan
19208;BME280;9737;59.466;18.036;2023-05-22T08:28:31;105858.13;;;25.69;nan
19208;BME280;9737;59.466;18.036;2023-05-22T08:30:59;106067.72;;;26.12;nan
19208;BME280;9737;59.466;18.036;2023-05-22T08:33:27;106303.44;;;26.66;nan
19208;BME280;9737;59.466;18.036;2023-05-22T08:35:56;106472.81;;;27.04;nan
19208;BME280;9737;59.466;18.036;2023-05-22T08:38:25;106435.78;;;26.97;nan
19208;BME280;9737;59.466;18.036;2023-05-22T08:40:59;106433.03;;;26.97;nan
19208;BME280;9737;59.466;18.036;2023-05-22T08:43:27;106431.19;;;26.97;nan
19208;BME280;9737;59.466;18.036;2023-05-22T08:46:02;106260.09;;;26.59;nan
19208;BME280;9737;59.466;18.036;2023-05-22T08:48:31;106642.19;;;27.43;nan
19208;BME280;9737;59.466;18.036;2023-05-22T08:51:02;107018.78;;;28.25;nan
19208;BME280;9737;59.466;18.036;2023-05-22T08:53:33;107017.72;;;28.28;nan
19208;BME280;9737;59.466;18.036;2023-05-22T08:56:04;107109.06;;;28.47;nan
19208;BME280;9737;59.466;18.036;2023-05-22T08:58:34;107223.88;;;28.74;nan
19208;BME280;9737;59.466;18.036;2023-05-22T09:01:03;107433.81;;;29.21;nan
19208;BME280;9737;59.466;18.036;2023-05-22T09:03:32;107470.16;;;29.26;nan
19208;BME280;9737;59.466;18.036;2023-05-22T09:06:01;107596.09;;;29.54;nan
19208;BME280;9737;59.466;18.036;2023-05-22T09:08:30;107692.97;;;29.78;nan
19208;BME280;9737;59.466;18.036;2023-05-22T09:10:58;107937.13;;;30.30;nan
19208;BME280;9737;59.466;18.036;2023-05-22T09:13:28;108193.28;;;30.86;nan
19208;BME280;9737;59.466;18.036;2023-05-22T09:15:59;107968.84;;;30.38;nan
19208;BME280;9737;59.466;18.036;2023-05-22T09:18:35;107937.88;;;30.33;nan
19208;BME280;9737;59.466;18.036;2023-05-22T09:21:04;108061.53;;;30.57;nan
19208;BME280;9737;59.466;18.036;2023-05-22T09:23:49;108078.59;;;30.66;nan
19208;BME280;9737;59.466;18.036;2023-05-22T09:26:17;108044.91;;;30.60;nan
19208;BME280;9737;59.466;18.036;2023-05-22T09:28:46;108022.22;;;30.55;nan
19208;BME280;9737;59.466;18.036;2023-05-22T09:31:14;108261.13;;;31.09;nan
19208;BME280;9737;59.466;18.036;2023-05-22T09:33:43;108198.44;;;30.95;nan
19208;BME280;9737;59.466;18.036;2023-05-22T09:36:11;108537.72;;;31.70;nan
19208;BME280;9737;59.466;18.036;2023-05-22T09:38:39;108439.47;;;31.48;nan
19208;BME280;9737;59.466;18.036;2023-05-22T09:41:08;108632.41;;;31.93;nan
19208;BME280;9737;59.466;18.036;2023-05-22T09:43:36;108658.81;;;31.98;nan
19208;BME280;9737;59.466;18.036;2023-05-22T09:46:04;108544.81;;;31.78;nan
19208;BME280;9737;59.466;18.036;2023-05-22T09:48:35;108567.59;;;31.83;nan
19208;BME280;9737;59.466;18.036;2023-05-22T09:51:03;108698.69;;;32.13;nan
19208;BME280;9737;59.466;18.036;2023-05-22T09:53:33;108711.44;;;32.16;nan
19208;BME280;9737;59.466;18.036;2023-05-22T09:56:04;108577.47;;;31.88;nan
19208;BME280;9737;59.466;18.036;2023-05-22T09:58:40;108719.53;;;32.20;nan
19208;BME280;9737;59.466;18.036;2023-05-22T10:01:10;108914.66;;;32.63;nan
19208;BME280;9737;59.466;18.036;2023-05-22T10:03:41;108758.72;;;32.30;nan
19208;BME280;9737;59.466;18.036;2023-05-22T10:06:13;108458.78;;;31.69;nan
19208;BME280;9737;59.466;18.036;2023-05-22T10:08:45;108571.63;;;31.96;nan
19208;BME280;9737;59.466;18.036;2023-05-22T10:11:16;108550.63;;;31.93;nan
19208;BME280;9737;59.466;18.036;2023-05-22T10:13:46;108928.88;;;32.76;nan
19208;BME280;9737;59.466;18.036;2023-05-22T10:16:15;108824.25;;;32.47;nan
19208;BME280;9737;59.466;18.036;2023-05-22T10:18:44;109072.22;;;33.07;nan
19208;BME280;9737;59.466;18.036;2023-05-22T10:21:15;109104.09;;;33.16;nan
19208;BME280;9737;59.466;18.036;2023-05-22T10:23:43;109143.34;;;33.24;nan
19208;BME280;9737;59.466;18.036;2023-05-22T10:26:11;109164.28;;;33.33;nan
19208;BME280;9737;59.466;18.036;2023-05-22T10:29:02;109186.31;;;33.34;nan
19208;BME280;9737;59.466;18.036;2023-05-22T10:31:38;109219.00;;;33.46;nan
19208;BME280;9737;59.466;18.036;2023-05-22T10:35:00;108771.47;;;32.56;nan
19208;BME280;9737;59.466;18.036;2023-05-22T10:37:41;108852.50;;;32.77;nan
19208;BME280;9737;59.466;18.036;2023-05-22T10:40:14;108869.88;;;32.80;nan
19208;BME280;9737;59.466;18.036;2023-05-22T10:42:43;108733.88;;;32.53;nan
19208;BME280;9737;59.466;18.036;2023-05-22T10:45:12;108484.06;;;32.02;nan
19208;BME280;9737;59.466;18.036;2023-05-22T10:47:41;108833.13;;;32.78;nan
19208;BME280;9737;59.466;18.036;2023-05-22T10:50:10;109003.75;;;33.15;nan
19208;BME280;9737;59.466;18.036;2023-05-22T10:52:38;109212.06;;;33.60;nan
19208;BME280;9737;59.466;18.036;2023-05-22T10:55:08;109457.00;;;34.15;nan
19208;BME280;9737;59.466;18.036;2023-05-22T10:57:37;109457.78;;;34.18;nan
19208;BME280;9737;59.466;18.036;2023-05-22T11:00:13;109847.09;;;35.00;nan
19208;BME280;9737;59.466;18.036;2023-05-22T11:02:44;109825.28;;;34.90;nan
19208;BME280;9737;59.466;18.036;2023-05-22T11:05:33;109789.16;;;34.93;nan
19208;BME280;9737;59.466;18.036;2023-05-22T11:08:09;109869.81;;;35.10;nan
19208;BME280;9737;59.466;18.036;2023-05-22T11:10:53;109773.56;;;34.90;nan
19208;BME280;9737;59.466;18.036;2023-05-22T11:13:24;109739.53;;;34.87;nan
19208;BME280;9737;59.466;18.036;2023-05-22T11:15:56;109580.88;;;34.58;nan
19208;BME280;9737;59.466;18.036;2023-05-22T11:18:27;109432.53;;;34.28;nan
19208;BME280;9737;59.466;18.036;2023-05-22T11:20:57;109839.06;;;35.18;nan
19208;BME280;9737;59.466;18.036;2023-05-22T11:23:26;110095.94;;;35.72;nan
19208;BME280;9737;59.466;18.036;2023-05-22T11:25:53;110041.75;;;35.61;nan
19208;BME280;9737;59.466;18.036;2023-05-22T11:28:22;109904.06;;;35.35;nan
19208;BME280;9737;59.466;18.036;2023-05-22T11:30:51;109991.06;;;35.58;nan
19208;BME280;9737;59.466;18.036;2023-05-22T11:33:22;109947.84;;;35.51;nan
19208;BME280;9737;59.466;18.036;2023-05-22T11:35:52;109596.84;;;34.75;nan
19208;BME280;9737;59.466;18.036;2023-05-22T11:38:20;109436.56;;;34.44;nan
19208;BME280;9737;59.466;18.036;2023-05-22T11:40:50;109690.09;;;35.01;nan
19208;BME280;9737;59.466;18.036;2023-05-22T11:43:27;109253.41;;;34.09;nan
19208;BME280;9737;59.466;18.036;2023-05-22T11:45:59;109313.69;;;34.25;nan
19208;BME280;9737;59.466;18.036;2023-05-22T11:48:29;109650.34;;;35.02;nan
19208;BME280;9737;59.466;18.036;2023-05-22T11:50:57;109884.91;;;35.53;nan
19208;BME280;9737;59.466;18.036;2023-05-22T11:53:25;110219.91;;;36.24;nan
19208;BME280;9737;59.466;18.036;2023-05-22T11:55:53;110221.69;;;36.26;nan
19208;BME280;9737;59.466;18.036;2023-05-22T11:58:26;110278.59;;;36.40;nan
19208;BME280;9737;59.466;18.036;2023-05-22T12:00:57;110423.78;;;36.71;nan
19208;BME280;9737;59.466;18.036;2023-05-22T12:03:25;110206.75;;;36.30;nan
19208;BME280;9737;59.466;18.036;2023-05-22T12:05:54;110484.31;;;36.89;nan
19208;BME280;9737;59.466;18.036;2023-05-22T12:08:23;110389.53;;;36.71;nan
19208;BME280;9737;59.466;18.036;2023-05-22T12:10:52;110217.69;;;36.35;nan
19208;BME280;9737;59.466;18.036;2023-05-22T12:13:25;109368.66;;;34.57;nan
19208;BME280;9737;59.466;18.036;2023-05-22T12:15:56;109534.19;;;34.96;nan
19208;BME280;9737;59.466;18.036;2023-05-22T12:18:25;108803.00;;;33.39;nan
19208;BME280;9737;59.466;18.036;2023-05-22T12:20:55;107805.47;;;31.22;nan
19208;BME280;9737;59.466;18.036;2023-05-22T12:23:24;107228.13;;;29.92;nan
19208;BME280;9737;59.466;18.036;2023-05-22T12:25:56;106717.16;;;28.82;nan
19208;BME280;9737;59.466;18.036;2023-05-22T12:28:25;106144.13;;;27.48;nan
19208;BME280;9737;59.466;18.036;2023-05-22T12:30:54;105919.38;;;26.94;nan
19208;BME280;9737;59.466;18.036;2023-05-22T12:33:26;105683.72;;;26.44;nan
19208;BME280;9737;59.466;18.036;2023-05-22T12:35:56;105592.81;;;26.27;nan
19208;BME280;9737;59.466;18.036;2023-05-22T12:38:26;105496.97;;;26.03;nan
19208;BME280;9737;59.466;18.036;2023-05-22T12:40:55;105487.81;;;26.04;nan
19208;BME280;9737;59.466;18.036;2023-05-22T12:43:24;105479.72;;;26.02;nan
19208;BME280;9737;59.466;18.036;2023-05-22T12:45:52;105567.56;;;26.23;nan
19208;BME280;9737;59.466;18.036;2023-05-22T12:48:20;105602.47;;;26.34;nan
19208;BME280;9737;59.466;18.036;2023-05-22T12:50:48;105528.84;;;26.16;nan
19208;BME280;9737;59.466;18.036;2023-05-22T12:53:17;105422.09;;;25.92;nan
19208;BME280;9737;59.466;18.036;2023-05-22T12:55:46;106042.44;;;27.39;nan
19208;BME280;9737;59.466;18.036;2023-05-22T12:58:14;106970.94;;;29.58;nan
19208;BME280;9737;59.466;18.036;2023-05-22T13:00:42;107693.53;;;31.23;nan
19208;BME280;9737;59.466;18.036;2023-05-22T13:03:10;107630.88;;;31.09;nan
19208;BME280;9737;59.466;18.036;2023-05-22T13:05:38;107285.78;;;30.28;nan
19208;BME280;9737;59.466;18.036;2023-05-22T13:08:07;107044.13;;;29.75;nan
19208;BME280;9737;59.466;18.036;2023-05-22T13:10:36;106905.69;;;29.46;nan
19208;BME280;9737;59.466;18.036;2023-05-22T13:13:04;107642.47;;;31.16;nan
19208;BME280;9737;59.466;18.036;2023-05-22T13:15:32;108235.66;;;32.49;nan
19208;BME280;9737;59.466;18.036;2023-05-22T13:18:01;108535.25;;;33.14;nan
19208;BME280;9737;59.466;18.036;2023-05-22T13:20:29;108212.97;;;32.43;nan
19208;BME280;9737;59.466;18.036;2023-05-22T13:22:58;107605.31;;;31.07;nan
19208;BME280;9737;59.466;18.036;2023-05-22T13:25:25;107049.22;;;29.82;nan
19208;BME280;9737;59.466;18.036;2023-05-22T13:27:56;106469.53;;;28.50;nan
19208;BME280;9737;59.466;18.036;2023-05-22T13:30:24;106026.63;;;27.44;nan
19208;BME280;9737;59.466;18.036;2023-05-22T13:32:51;105638.47;;;26.54;nan
19208;BME280;9737;59.466;18.036;2023-05-22T13:35:20;105501.38;;;26.19;nan